Time;durP1;ratioP1;P1;durP2;ratioP2;P2;SDS_P1;SDS_P2;PMS_P1;PMS_P2;Temp;Humidity;BMP_temperature;BMP_pressure;BME280_temperature;BME280_humidity;BME280_pressure;Samples;Min_cycle;Max_cycle;Signal;HPM_P1;HPM_P2
2021/10/30 00:00:10;;;;;;;9.02;8.23;;;;;;;26.37;19.56;95134.72;5034830;28;20046;-52
2021/10/30 00:02:41;;;;;;;9.10;8.25;;;;;;;26.59;19.15;95129.56;5035912;28;20056;-52
2021/10/30 00:05:11;;;;;;;9.30;8.27;;;;;;;26.32;19.35;95140.41;5035138;28;20061;-61
2021/10/30 00:07:40;;;;;;;9.48;8.45;;;;;;;26.35;19.59;95131.66;5035212;28;20057;-52
2021/10/30 00:10:08;;;;;;;8.65;7.82;;;;;;;26.43;19.49;95130.56;5034354;28;20464;-56
2021/10/30 00:12:35;;;;;;;8.75;7.78;;;;;;;26.71;19.30;95127.38;5035593;28;20467;-51
2021/10/30 00:15:03;;;;;;;8.32;7.53;;;;;;;26.77;19.38;95132.38;5035016;28;20056;-53
2021/10/30 00:17:30;;;;;;;8.75;7.80;;;;;;;26.33;19.80;95123.19;5034776;28;20057;-52
2021/10/30 00:19:57;;;;;;;9.07;7.70;;;;;;;26.51;19.53;95127.94;5034719;28;20045;-51
2021/10/30 00:22:25;;;;;;;8.48;7.68;;;;;;;26.40;19.68;95125.94;5034237;28;20362;-52
2021/10/30 00:24:52;;;;;;;8.82;8.05;;;;;;;26.50;19.47;95131.78;5035071;28;20045;-52
2021/10/30 00:27:19;;;;;;;8.32;7.53;;;;;;;26.71;19.28;95127.38;5033800;28;20048;-51
2021/10/30 00:29:46;;;;;;;8.65;7.85;;;;;;;26.40;19.84;95120.59;5034820;28;20494;-70
2021/10/30 00:32:13;;;;;;;8.68;7.82;;;;;;;26.46;19.80;95107.63;5033678;28;20046;-51
2021/10/30 00:34:41;;;;;;;9.32;8.35;;;;;;;26.76;19.82;95112.84;5034740;28;20456;-53
2021/10/30 00:37:08;;;;;;;10.98;7.85;;;;;;;26.50;19.63;95105.72;5034567;28;20049;-52
2021/10/30 00:39:35;;;;;;;8.95;8.15;;;;;;;26.43;19.78;95117.16;5033733;28;20060;-55
2021/10/30 00:42:02;;;;;;;8.50;7.75;;;;;;;26.53;20.02;95118.38;5033536;28;20057;-52
2021/10/30 00:44:29;;;;;;;8.95;7.80;;;;;;;26.36;20.00;95111.75;5034682;28;20729;-51
2021/10/30 00:46:56;;;;;;;8.05;7.28;;;;;;;26.14;20.16;95115.31;5034665;28;20060;-51
2021/10/30 00:49:28;;;;;;;8.85;7.95;;;;;;;26.46;20.08;95109.53;5034225;28;20061;-52
2021/10/30 00:51:56;;;;;;;;;;;;;;;26.27;20.15;95118.50;5033063;28;20048;-52
2021/10/30 00:54:25;;;;;;;8.68;7.88;;;;;;;26.70;19.50;95103.59;5034389;28;19921;-55
2021/10/30 00:56:54;;;;;;;8.55;7.75;;;;;;;26.17;20.12;95114.59;5034454;28;20053;-52
2021/10/30 00:59:22;;;;;;;8.88;7.97;;;;;;;26.19;20.40;95117.66;5033463;28;20049;-51
2021/10/30 01:01:50;;;;;;;8.40;7.60;;;;;;;26.21;20.25;95104.66;5033690;28;20449;-52
2021/10/30 01:04:19;;;;;;;9.35;8.45;;;;;;;26.22;20.52;95116.16;5033756;28;20053;-55
2021/10/30 01:06:48;;;;;;;9.60;8.60;;;;;;;26.15;20.42;95114.19;5034162;28;20056;-49
2021/10/30 01:09:16;;;;;;;8.82;8.02;;;;;;;26.51;20.17;95106.50;5032845;28;20049;-51
2021/10/30 01:11:46;;;;;;;8.85;7.97;;;;;;;26.39;20.08;95108.31;5033537;28;20045;-53
2021/10/30 01:14:13;;;;;;;8.93;8.02;;;;;;;26.42;20.19;95102.22;5034281;28;20049;-53
2021/10/30 01:16:40;;;;;;;8.80;8.00;;;;;;;26.10;20.48;95109.16;5033159;28;20053;-50
2021/10/30 01:19:07;;;;;;;8.82;7.93;;;;;;;26.26;20.46;95107.00;5033991;28;20053;-55
2021/10/30 01:21:36;;;;;;;8.93;8.07;;;;;;;26.24;20.34;95109.28;5033230;28;20045;-51
2021/10/30 01:24:05;;;;;;;9.77;8.88;;;;;;;26.61;19.96;95105.84;5014302;28;20078;-59
2021/10/30 01:26:35;;;;;;;8.90;8.10;;;;;;;26.50;20.40;95103.06;5014704;28;20076;-55
2021/10/30 01:29:03;;;;;;;9.25;8.35;;;;;;;26.31;20.35;95095.97;5014454;28;20057;-50
2021/10/30 01:31:31;;;;;;;8.77;7.85;;;;;;;26.21;20.48;95098.53;5023129;28;20053;-50
2021/10/30 01:34:02;;;;;;;9.45;8.55;;;;;;;26.58;20.12;95099.31;5033738;28;20049;-53
2021/10/30 01:36:34;;;;;;;9.83;8.70;;;;;;;26.49;20.55;95100.75;5033963;28;20045;-53
2021/10/30 01:39:04;;;;;;;;;;;;;;;26.27;20.70;95108.56;5034461;28;20265;-50
2021/10/30 01:41:32;;;;;;;10.75;9.65;;;;;;;26.16;20.80;95107.69;5033479;28;19924;-51
2021/10/30 01:44:00;;;;;;;9.98;9.07;;;;;;;26.25;20.47;95108.16;5033550;28;20365;-57
2021/10/30 01:46:27;;;;;;;10.23;9.32;;;;;;;26.31;20.56;95112.06;5018619;28;20049;-53
2021/10/30 01:48:54;;;;;;;10.65;9.52;;;;;;;26.26;20.65;95112.38;5013799;28;20046;-50
2021/10/30 01:51:22;;;;;;;10.57;9.57;;;;;;;26.03;21.10;95104.50;5020118;28;20044;-51
2021/10/30 01:53:50;;;;;;;10.80;9.80;;;;;;;26.13;20.99;95108.44;5033500;28;20049;-53
2021/10/30 01:56:17;;;;;;;10.55;9.55;;;;;;;26.05;20.87;95112.19;5033719;28;20045;-52
2021/10/30 01:58:44;;;;;;;10.60;9.60;;;;;;;26.10;21.08;95109.16;5032496;28;20053;-53
2021/10/30 02:01:12;;;;;;;10.32;9.20;;;;;;;26.05;20.95;95106.81;5033347;28;20029;-51
2021/10/30 02:03:39;;;;;;;10.48;9.45;;;;;;;25.77;21.10;95108.03;5032562;28;20050;-51
2021/10/30 02:06:06;;;;;;;10.05;9.05;;;;;;;25.79;21.49;95100.41;5033083;28;20060;-52
2021/10/30 02:08:34;;;;;;;10.00;9.00;;;;;;;25.62;21.83;95108.19;5033414;28;20045;-53
2021/10/30 02:11:01;;;;;;;10.10;9.20;;;;;;;25.66;21.51;95107.09;5036744;28;20041;-55
2021/10/30 02:13:29;;;;;;;10.23;9.23;;;;;;;26.13;20.89;95109.19;5037326;28;20056;-52
2021/10/30 02:15:56;;;;;;;9.82;9.02;;;;;;;25.80;21.38;95101.94;5037319;28;20049;-54
2021/10/30 02:18:23;;;;;;;10.38;9.40;;;;;;;26.19;20.90;95101.59;5037138;28;20050;-52
2021/10/30 02:20:50;;;;;;;16.38;9.68;;;;;;;26.56;20.39;95104.28;5037362;28;20045;-52
2021/10/30 02:23:19;;;;;;;10.48;9.48;;;;;;;26.36;20.69;95117.09;5036462;28;20058;-51
2021/10/30 02:25:46;;;;;;;10.63;9.63;;;;;;;26.20;20.70;95107.72;5037693;28;20360;-52
2021/10/30 02:28:13;;;;;;;10.40;9.50;;;;;;;26.29;20.74;95110.88;5035147;28;20052;-52
2021/10/30 02:30:40;;;;;;;11.45;10.35;;;;;;;26.27;20.63;95107.78;5017414;28;20053;-52
2021/10/30 02:33:07;;;;;;;11.63;10.48;;;;;;;26.20;20.49;95119.22;5027329;28;20348;-54
2021/10/30 02:35:34;;;;;;;10.82;9.80;;;;;;;25.81;20.81;95111.53;5036606;28;20057;-51
2021/10/30 02:38:02;;;;;;;10.90;9.88;;;;;;;25.68;20.90;95115.56;5018153;28;20472;-50
2021/10/30 02:40:29;;;;;;;11.57;10.48;;;;;;;26.12;20.38;95109.56;5016713;28;20046;-53
2021/10/30 02:42:57;;;;;;;11.57;10.50;;;;;;;25.86;21.00;95101.63;5024958;28;20076;-52
2021/10/30 02:45:24;;;;;;;11.18;10.07;;;;;;;25.81;20.95;95108.84;5036340;28;20045;-50
2021/10/30 02:47:51;;;;;;;12.05;10.85;;;;;;;26.05;20.78;95106.81;5036735;28;20349;-54
2021/10/30 02:50:19;;;;;;;11.65;10.60;;;;;;;25.84;20.97;95122.66;5036798;28;20053;-53
2021/10/30 02:52:46;;;;;;;11.77;10.68;;;;;;;25.56;21.18;95117.69;5035851;28;20045;-54
2021/10/30 02:55:13;;;;;;;11.48;10.38;;;;;;;25.58;20.93;95116.19;5025466;28;20333;-53
2021/10/30 02:57:48;;;;;;;11.68;10.57;;;;;;;25.50;20.81;95115.34;5035569;28;20044;-53
2021/10/30 03:00:16;;;;;;;11.82;10.73;;;;;;;25.52;20.77;95118.41;5036297;28;20056;-52
2021/10/30 03:02:43;;;;;;;11.98;10.77;;;;;;;25.24;20.95;95118.00;5036840;28;20053;-53
2021/10/30 03:05:11;;;;;;;12.00;10.90;;;;;;;25.04;21.30;95112.03;5036102;28;20468;-56
2021/10/30 03:07:38;;;;;;;11.95;10.85;;;;;;;25.72;20.70;95120.97;5036275;28;20064;-52
2021/10/30 03:10:07;;;;;;;12.55;11.27;;;;;;;25.34;20.90;95111.28;5035690;28;20049;-53
2021/10/30 03:12:34;;;;;;;13.70;12.40;;;;;;;25.13;21.29;95112.53;5036092;28;20067;-62
2021/10/30 03:15:01;;;;;;;13.38;12.07;;;;;;;25.17;21.19;95115.25;5036352;28;20045;-54
2021/10/30 03:17:28;;;;;;;14.07;12.68;;;;;;;25.24;20.97;95111.88;5035624;28;20046;-50
2021/10/30 03:19:55;;;;;;;13.68;12.38;;;;;;;25.36;20.94;95117.03;5036521;28;20049;-54
2021/10/30 03:22:22;;;;;;;18.17;16.27;;;;;;;25.04;21.04;95111.25;5034740;28;20057;-54
2021/10/30 03:24:50;;;;;;;16.23;14.65;;;;;;;25.09;20.73;95111.69;5036078;28;20049;-60
2021/10/30 03:27:17;;;;;;;15.15;13.68;;;;;;;25.12;20.85;95107.53;5021403;28;20037;-57
2021/10/30 03:29:44;;;;;;;16.10;14.50;;;;;;;24.99;20.79;95112.34;5035458;28;20045;-58
2021/10/30 03:32:11;;;;;;;18.77;13.48;;;;;;;24.76;21.10;95106.97;5035744;28;20063;-56
2021/10/30 03:34:38;;;;;;;16.27;14.02;;;;;;;25.04;20.76;95114.69;5035317;28;20141;-54
2021/10/30 03:37:05;;;;;;;16.25;14.40;;;;;;;25.14;20.77;95108.72;5031952;28;20053;-54
2021/10/30 03:39:32;;;;;;;16.13;14.52;;;;;;;24.82;21.16;95113.56;5031752;28;20056;-50
2021/10/30 03:41:59;;;;;;;16.02;13.75;;;;;;;25.07;20.74;95108.63;5035561;28;20049;-50
2021/10/30 03:44:26;;;;;;;15.38;13.70;;;;;;;24.62;21.28;95112.09;5035818;28;20053;-53
2021/10/30 03:46:53;;;;;;;14.63;13.23;;;;;;;24.22;21.68;95115.22;5036060;28;20042;-56
2021/10/30 03:49:21;;;;;;;14.73;13.30;;;;;;;24.28;21.77;95121.81;5034910;28;20053;-56
2021/10/30 03:51:48;;;;;;;15.25;13.07;;;;;;;24.31;21.62;95110.44;5024813;28;20052;-52
2021/10/30 03:54:15;;;;;;;13.75;12.35;;;;;;;24.37;21.80;95122.34;5035321;28;20046;-51
2021/10/30 03:56:42;;;;;;;15.00;13.38;;;;;;;24.28;21.66;95124.50;5035554;28;20364;-51
2021/10/30 03:59:09;;;;;;;14.50;13.02;;;;;;;24.19;21.97;95121.22;5035369;28;20053;-60
2021/10/30 04:01:36;;;;;;;14.70;13.27;;;;;;;23.70;22.51;95119.19;5035662;28;20052;-52
2021/10/30 04:04:03;;;;;;;17.13;13.82;;;;;;;23.86;22.39;95122.53;5035151;28;20072;-55
2021/10/30 04:06:30;;;;;;;13.68;12.43;;;;;;;24.61;21.17;95121.25;5035531;28;20049;-51
2021/10/30 04:08:57;;;;;;;14.13;12.73;;;;;;;23.36;22.58;95121.50;5034959;28;20056;-51
2021/10/30 04:11:24;;;;;;;15.68;12.93;;;;;;;23.32;22.40;95120.66;5016718;28;20065;-50
2021/10/30 04:13:52;;;;;;;16.90;14.52;;;;;;;23.53;22.57;95119.56;5026688;28;20060;-51
2021/10/30 04:16:19;;;;;;;15.68;14.05;;;;;;;23.49;22.22;95108.81;5035087;28;20045;-49
2021/10/30 04:18:46;;;;;;;17.55;14.05;;;;;;;23.41;22.36;95117.78;5034866;28;20045;-52
2021/10/30 04:21:14;;;;;;;15.30;13.80;;;;;;;23.34;22.72;95107.72;5034458;28;20053;-52
2021/10/30 04:23:41;;;;;;;15.60;13.90;;;;;;;23.52;22.69;95113.44;5035023;28;20049;-50
2021/10/30 04:26:09;;;;;;;15.95;14.30;;;;;;;23.57;22.59;95107.09;5034956;28;20499;-53
2021/10/30 04:28:36;;;;;;;14.98;13.65;;;;;;;23.33;23.13;95110.75;5034713;28;20460;-49
2021/10/30 04:31:07;;;;;;;17.90;14.57;;;;;;;23.43;22.80;95109.44;5034397;28;20049;-54
2021/10/30 04:33:36;;;;;;;16.20;14.52;;;;;;;23.63;22.47;95108.34;5022204;28;20113;-49
2021/10/30 04:36:13;;;;;;;14.55;12.85;;;;;;;23.23;22.92;95104.09;5033770;28;20061;-52
2021/10/30 04:38:41;;;;;;;14.98;13.38;;;;;;;23.43;22.56;95109.44;5034451;28;20064;-51
2021/10/30 04:41:08;;;;;;;15.23;13.02;;;;;;;23.16;23.04;95105.81;5034933;28;20053;-60
2021/10/30 04:43:35;;;;;;;15.35;13.85;;;;;;;23.92;21.75;95109.69;5033373;28;20056;-49
2021/10/30 04:46:03;;;;;;;15.05;13.73;;;;;;;23.10;22.98;95113.31;5033626;28;20037;-58
2021/10/30 04:48:31;;;;;;;15.82;14.32;;;;;;;23.05;22.91;95108.25;5034161;28;20049;-50
2021/10/30 04:50:58;;;;;;;17.73;14.27;;;;;;;23.24;23.06;95110.97;5033221;28;20045;-59
2021/10/30 04:53:26;;;;;;;15.27;13.73;;;;;;;23.11;23.04;95114.06;5032993;28;20053;-52
2021/10/30 04:55:53;;;;;;;15.75;13.90;;;;;;;23.01;23.30;95110.06;5034676;28;20048;-50
2021/10/30 04:58:20;;;;;;;17.00;15.13;;;;;;;23.22;23.04;95107.88;5034078;28;20049;-54
2021/10/30 05:00:47;;;;;;;15.02;13.60;;;;;;;23.14;23.08;95114.16;5034437;28;20056;-49
2021/10/30 05:03:14;;;;;;;17.10;15.40;;;;;;;22.94;23.78;95110.69;5033814;28;20052;-51
2021/10/30 05:05:41;;;;;;;16.38;14.50;;;;;;;23.05;23.54;95117.00;5034428;28;20060;-52
2021/10/30 05:08:08;;;;;;;16.40;14.68;;;;;;;23.18;23.44;95123.03;5034353;28;20053;-49
2021/10/30 05:10:35;;;;;;;16.05;14.35;;;;;;;23.56;23.00;95125.00;5034611;28;20042;-54
2021/10/30 05:13:03;;;;;;;17.55;14.25;;;;;;;23.73;23.00;95118.47;5034263;28;20325;-51
2021/10/30 05:15:32;;;;;;;14.02;12.45;;;;;;;24.93;22.62;95119.06;5033355;28;20056;-60
2021/10/30 05:18:00;;;;;;;14.32;11.98;;;;;;;25.29;22.12;95117.72;5015920;28;20491;-54
2021/10/30 05:20:27;;;;;;;13.02;11.73;;;;;;;25.96;21.66;95119.72;5026574;28;20053;-51
2021/10/30 05:22:55;;;;;;;13.13;11.85;;;;;;;26.04;21.22;95116.00;5029204;28;20060;-50
2021/10/30 05:25:25;;;;;;;13.02;11.73;;;;;;;26.37;20.44;95112.53;5033917;28;20045;-52
2021/10/30 05:27:52;;;;;;;13.00;11.68;;;;;;;26.24;20.75;95108.53;5033685;28;20045;-53
2021/10/30 05:30:20;;;;;;;13.32;11.88;;;;;;;26.80;19.92;95112.88;5028823;28;20049;-52
2021/10/30 05:32:47;;;;;;;13.23;12.02;;;;;;;26.69;20.19;95108.19;5022128;28;20044;-53
2021/10/30 05:35:32;;;;;;;14.70;13.30;;;;;;;26.93;19.85;95106.84;5023090;28;20061;-51
2021/10/30 05:38:14;;;;;;;14.77;13.20;;;;;;;27.18;19.52;95112.41;5024327;28;20057;-57
2021/10/30 05:40:41;;;;;;;14.48;13.18;;;;;;;27.21;19.30;95116.25;5022911;28;20046;-52
2021/10/30 05:43:08;;;;;;;15.35;13.70;;;;;;;27.67;18.95;95113.09;5023844;28;20046;-53
2021/10/30 05:45:35;;;;;;;15.45;13.93;;;;;;;27.83;19.06;95118.88;5034748;28;20060;-53
2021/10/30 05:48:03;;;;;;;15.35;13.85;;;;;;;27.91;18.70;95121.25;5038896;28;20071;-51
2021/10/30 05:50:32;;;;;;;16.20;13.90;;;;;;;28.23;18.83;95120.56;5031235;28;20045;-51
2021/10/30 05:52:59;;;;;;;18.23;13.15;;;;;;;28.26;18.50;95119.81;5033681;28;20046;-51
2021/10/30 05:55:27;;;;;;;15.25;13.38;;;;;;;28.91;17.97;95116.06;5037937;28;20056;-53
2021/10/30 05:57:54;;;;;;;13.75;12.45;;;;;;;29.06;17.77;95116.81;5020123;28;20045;-52
2021/10/30 06:00:21;;;;;;;15.02;13.50;;;;;;;29.41;17.39;95122.16;5036088;28;20049;-51
2021/10/30 06:02:48;;;;;;;15.43;13.82;;;;;;;30.34;16.61;95116.41;5030346;28;20053;-54
2021/10/30 06:05:15;;;;;;;17.40;13.57;;;;;;;30.54;16.87;95117.44;5029176;28;20054;-52
2021/10/30 06:07:42;;;;;;;14.90;13.30;;;;;;;30.91;16.46;95121.41;5020694;28;20050;-68
2021/10/30 06:10:09;;;;;;;14.70;13.10;;;;;;;31.41;15.96;95116.34;5024203;28;20464;-58
2021/10/30 06:12:40;;;;;;;14.68;12.65;;;;;;;31.93;15.35;95123.53;5021755;28;20049;-62
2021/10/30 06:15:08;;;;;;;13.63;12.23;;;;;;;32.13;15.36;95119.00;5039031;28;20502;-65
2021/10/30 06:17:36;;;;;;;13.07;11.52;;;;;;;32.25;15.22;95107.63;5038180;28;20049;-55
2021/10/30 06:20:04;;;;;;;13.32;10.57;;;;;;;32.53;14.73;95119.25;5036903;28;20045;-51
2021/10/30 06:22:31;;;;;;;14.70;11.30;;;;;;;32.61;14.92;95123.41;5039694;28;20053;-55
2021/10/30 06:24:58;;;;;;;16.92;10.70;;;;;;;32.86;14.94;95121.09;5039228;28;20056;-49
2021/10/30 06:27:25;;;;;;;12.35;10.15;;;;;;;33.18;14.79;95122.50;5036344;28;20048;-55
2021/10/30 06:29:52;;;;;;;12.50;10.55;;;;;;;33.30;14.42;95113.75;5035676;28;20479;-52
2021/10/30 06:32:19;;;;;;;11.77;10.23;;;;;;;33.39;14.16;95122.16;5039784;28;20041;-56
2021/10/30 06:34:46;;;;;;;12.45;11.15;;;;;;;33.49;14.01;95123.13;5039321;28;20079;-50
2021/10/30 06:37:13;;;;;;;12.27;11.07;;;;;;;34.11;14.12;95124.25;5038749;28;20072;-61
2021/10/30 06:39:40;;;;;;;14.93;13.40;;;;;;;34.89;13.60;95123.31;5039383;28;20045;-51
2021/10/30 06:42:07;;;;;;;15.85;14.23;;;;;;;35.58;13.38;95127.78;5032664;28;20049;-51
2021/10/30 06:44:35;;;;;;;16.63;14.75;;;;;;;35.39;12.96;95122.06;5027306;28;20053;-52
2021/10/30 06:47:03;;;;;;;20.52;14.10;;;;;;;36.07;12.76;95118.28;5019859;28;20053;-53
2021/10/30 06:49:31;;;;;;;73.50;43.10;;;;;;;34.84;13.33;95123.81;5030624;28;20053;-48
2021/10/30 06:51:58;;;;;;;99.20;48.25;;;;;;;34.69;13.52;95133.47;5038392;28;20060;-46
2021/10/30 06:54:26;;;;;;;78.00;45.53;;;;;;;34.83;13.23;95124.97;5032213;28;20049;-45
2021/10/30 06:56:53;;;;;;;68.68;43.95;;;;;;;34.76;13.23;95130.56;5036574;28;20053;-48
2021/10/30 06:59:20;;;;;;;61.67;42.38;;;;;;;34.93;13.23;95134.84;5035277;28;20053;-48
2021/10/30 07:01:56;;;;;;;54.33;40.17;;;;;;;34.82;13.55;95134.28;5034826;28;20060;-49
2021/10/30 07:04:23;;;;;;;52.05;38.72;;;;;;;35.10;13.08;95134.81;5035360;28;20472;-52
2021/10/30 07:06:51;;;;;;;48.35;37.72;;;;;;;34.98;13.37;95124.66;5036289;28;20049;-47
2021/10/30 07:09:18;;;;;;;51.92;37.05;;;;;;;34.87;13.25;95128.41;5035272;28;20053;-49
2021/10/30 07:11:46;;;;;;;38.78;34.67;;;;;;;35.05;13.21;95127.97;5035802;28;20045;-52
2021/10/30 07:14:13;;;;;;;37.35;33.75;;;;;;;35.71;12.97;95134.06;5036032;28;20044;-54
2021/10/30 07:16:40;;;;;;;40.08;36.20;;;;;;;35.24;12.91;95139.91;5035103;28;20045;-57
2021/10/30 07:19:08;;;;;;;172.10;72.80;;;;;;;35.07;12.79;95133.72;5035746;28;20045;-48
2021/10/30 07:21:35;;;;;;;235.15;74.45;;;;;;;35.51;12.77;95148.56;5034990;28;20044;-61
2021/10/30 07:24:02;;;;;;;246.68;72.93;;;;;;;35.37;12.55;95132.59;5035649;28;20087;-65
2021/10/30 07:26:29;;;;;;;257.85;71.95;;;;;;;35.44;12.55;95127.00;5036178;28;20042;-52
2021/10/30 07:28:57;;;;;;;262.02;69.53;;;;;;;36.43;11.82;95133.56;5035834;28;20053;-59
2021/10/30 07:31:24;;;;;;;66.57;57.75;;;;;;;36.31;11.96;95131.63;5033805;28;20058;-52
2021/10/30 07:33:51;;;;;;;40.47;36.75;;;;;;;36.69;11.45;95135.09;5035614;28;20046;-51
2021/10/30 07:36:18;;;;;;;17.40;16.00;;;;;;;37.14;11.27;95133.31;5035807;28;20041;-49
2021/10/30 07:38:45;;;;;;;9.50;7.93;;;;;;;37.21;11.86;95131.09;5035291;28;20368;-53
2021/10/30 07:41:12;;;;;;;8.38;7.57;;;;;;;36.18;12.03;95130.81;5035316;28;20056;-55
2021/10/30 07:43:39;;;;;;;10.00;7.60;;;;;;;34.77;13.11;95128.63;5035611;28;20049;-50
2021/10/30 07:46:07;;;;;;;7.88;7.18;;;;;;;34.60;13.19;95130.56;5020723;28;20341;-54
2021/10/30 07:48:34;;;;;;;9.90;7.70;;;;;;;34.06;13.91;95130.94;5031772;28;20045;-59
2021/10/30 07:51:01;;;;;;;10.32;8.15;;;;;;;34.17;13.82;95130.72;5035129;28;20052;-57
2021/10/30 07:53:29;;;;;;;9.65;8.10;;;;;;;34.10;14.35;95126.22;5028031;28;20473;-55
2021/10/30 07:55:56;;;;;;;8.82;7.20;;;;;;;33.99;14.25;95128.38;5015859;28;20092;-51
2021/10/30 07:58:23;;;;;;;8.50;7.25;;;;;;;33.84;14.33;95119.00;5029415;28;20066;-53
2021/10/30 08:00:50;;;;;;;8.80;6.40;;;;;;;33.86;13.61;95124.78;5034508;28;20048;-54
2021/10/30 08:03:17;;;;;;;7.90;6.90;;;;;;;33.82;13.84;95116.66;5034837;28;20352;-50
2021/10/30 08:05:44;;;;;;;8.90;6.38;;;;;;;33.77;13.63;95119.09;5035164;28;20053;-52
2021/10/30 08:08:11;;;;;;;6.07;5.50;;;;;;;34.19;13.07;95104.69;5034383;28;20052;-57
2021/10/30 08:10:39;;;;;;;7.57;6.00;;;;;;;34.24;13.20;95117.75;5029544;28;20052;-46
2021/10/30 08:13:11;;;;;;;7.55;5.65;;;;;;;33.82;13.62;95099.63;5015469;28;20052;-45
2021/10/30 08:15:38;;;;;;;8.35;6.15;;;;;;;33.67;13.92;95097.22;5033977;28;20052;-49
2021/10/30 08:18:05;;;;;;;8.50;6.65;;;;;;;34.85;13.28;95100.88;5033263;28;20053;-51
2021/10/30 08:20:34;;;;;;;7.63;6.60;;;;;;;35.70;13.09;95084.34;5032518;28;20053;-53
2021/10/30 08:23:01;;;;;;;12.10;6.28;;;;;;;34.17;12.79;95101.66;5031362;28;20057;-53
2021/10/30 08:25:28;;;;;;;6.40;5.38;;;;;;;33.96;13.22;95099.38;5034745;28;20329;-57
2021/10/30 08:27:55;;;;;;;9.10;5.15;;;;;;;32.60;13.79;95100.22;5022670;28;20056;-59
2021/10/30 08:30:22;;;;;;;5.82;5.22;;;;;;;33.33;13.14;95091.31;5022689;28;20037;-59
2021/10/30 08:32:49;;;;;;;5.97;4.93;;;;;;;33.27;13.47;95087.50;5034909;28;20041;-56
2021/10/30 08:35:16;;;;;;;6.15;5.20;;;;;;;33.62;13.16;95094.25;5034858;28;20053;-57
2021/10/30 08:37:43;;;;;;;7.32;5.50;;;;;;;32.87;13.46;95090.13;5034558;28;20049;-55
2021/10/30 08:40:13;;;;;;;9.43;5.25;;;;;;;32.96;13.48;95095.00;5034631;28;20053;-57
2021/10/30 08:42:50;;;;;;;6.90;5.40;;;;;;;32.93;13.40;95093.13;5033384;28;20052;-62
2021/10/30 08:45:18;;;;;;;6.47;5.88;;;;;;;33.34;13.47;95090.88;5015125;28;20479;-59
2021/10/30 08:47:47;;;;;;;7.30;5.50;;;;;;;33.43;13.61;95084.91;5022628;28;20573;-52
2021/10/30 08:50:16;;;;;;;7.43;6.38;;;;;;;33.41;13.02;95084.56;5050174;28;20076;-61
2021/10/30 08:52:43;;;;;;;6.80;5.80;;;;;;;33.04;13.38;95080.94;5034253;28;20053;-52
2021/10/30 08:55:10;;;;;;;7.53;5.50;;;;;;;33.50;13.01;95070.44;5034483;28;20046;-59
2021/10/30 08:57:37;;;;;;;7.85;5.57;;;;;;;32.99;13.37;95069.81;5034426;28;20356;-58
2021/10/30 09:00:27;;;;;;;6.07;5.47;;;;;;;33.57;13.24;95067.59;5034676;28;20355;-51
2021/10/30 09:03:04;;;;;;;6.70;6.00;;;;;;;33.95;13.18;95057.19;5034796;28;20056;-53
2021/10/30 09:05:32;;;;;;;16.88;6.20;;;;;;;34.10;13.40;95055.69;5031771;28;20075;-58
2021/10/30 09:08:02;;;;;;;7.18;5.35;;;;;;;33.55;13.14;95059.88;5033956;28;20049;-59
2021/10/30 09:10:35;;;;;;;18.17;6.07;;;;;;;33.80;13.06;95055.91;5034217;28;20049;-61
2021/10/30 09:13:11;;;;;;;43.55;8.13;;;;;;;33.64;12.94;95062.81;5034557;28;20045;-61
2021/10/30 09:15:47;;;;;;;14.75;6.53;;;;;;;34.39;13.05;95049.66;5034204;28;20041;-57
2021/10/30 09:18:24;;;;;;;18.27;6.75;;;;;;;34.63;12.78;95059.16;5033455;28;20356;-64
2021/10/30 09:20:52;;;;;;;11.00;6.85;;;;;;;33.10;12.76;95065.75;5032458;28;20437;-61
2021/10/30 09:23:22;;;;;;;8.07;6.43;;;;;;;33.91;12.86;95048.34;5033471;28;20056;-56
2021/10/30 09:26:02;;;;;;;11.35;6.43;;;;;;;32.89;13.46;95044.47;5031204;28;20052;-64
2021/10/30 09:28:31;;;;;;;21.75;7.30;;;;;;;33.44;12.84;95045.78;5026481;28;20053;-53
2021/10/30 09:31:04;;;;;;;19.27;10.90;;;;;;;33.46;12.95;95038.00;5033829;28;20057;-71
2021/10/30 09:33:34;;;;;;;14.10;8.02;;;;;;;33.08;12.68;95040.28;5033909;28;20060;-54
2021/10/30 09:36:12;;;;;;;11.60;7.43;;;;;;;33.64;12.56;95030.28;5033897;28;20045;-50
2021/10/30 09:38:42;;;;;;;11.13;6.70;;;;;;;33.55;12.69;95021.19;5033552;28;20048;-51
2021/10/30 09:41:29;;;;;;;6.80;6.10;;;;;;;32.84;13.49;95028.69;5033680;28;20045;-51
2021/10/30 09:44:00;;;;;;;21.83;6.63;;;;;;;32.57;13.34;95025.28;5033957;28;20056;-53
2021/10/30 09:46:29;;;;;;;10.23;6.30;;;;;;;32.78;13.25;95036.47;5033978;28;20049;-64
2021/10/30 09:48:59;;;;;;;6.90;6.28;;;;;;;32.90;13.29;95012.75;5033902;28;20447;-54
2021/10/30 09:51:34;;;;;;;6.90;6.20;;;;;;;33.29;12.82;95012.75;5049196;28;20049;-51
2021/10/30 09:54:05;;;;;;;6.88;6.28;;;;;;;33.25;13.17;95008.59;5033701;28;20045;-53
2021/10/30 09:56:49;;;;;;;7.53;6.53;;;;;;;33.43;12.75;95003.63;5033649;28;20046;-52
2021/10/30 09:59:17;;;;;;;6.60;6.00;;;;;;;32.50;13.01;94994.44;5033665;28;20416;-56
2021/10/30 10:01:46;;;;;;;6.88;6.18;;;;;;;33.23;13.72;94994.69;5033595;28;20452;-56
2021/10/30 10:04:14;;;;;;;8.10;6.25;;;;;;;33.07;13.14;95011.66;5017975;28;20143;-67
2021/10/30 10:06:46;;;;;;;12.02;7.00;;;;;;;33.55;12.48;94994.84;5013746;28;20334;-60
2021/10/30 10:09:22;;;;;;;14.93;6.72;;;;;;;32.76;12.97;95000.94;5030675;28;20050;-56
2021/10/30 10:11:53;;;;;;;8.82;6.20;;;;;;;33.05;13.06;94990.41;5033511;28;20407;-73
2021/10/30 10:14:21;;;;;;;7.35;6.15;;;;;;;32.98;13.00;94985.09;5033774;28;20053;-70
2021/10/30 10:16:53;;;;;;;6.78;6.18;;;;;;;33.32;12.32;94984.13;5033599;28;20467;-67
2021/10/30 10:19:22;;;;;;;11.13;6.43;;;;;;;32.82;12.70;94993.16;5033248;28;20052;-53
2021/10/30 10:21:50;;;;;;;19.00;7.68;;;;;;;33.23;12.92;94979.22;5032774;28;20061;-68
2021/10/30 10:24:29;;;;;;;120.72;13.00;;;;;;;33.59;12.71;94976.59;5033663;28;20049;-72
2021/10/30 10:26:57;;;;;;;27.10;8.48;;;;;;;33.52;12.83;94971.28;5033428;28;20053;-69
2021/10/30 10:29:45;;;;;;;17.98;7.05;;;;;;;33.01;12.84;94962.59;5033121;28;20049;-61
2021/10/30 10:32:15;;;;;;;10.77;7.13;;;;;;;33.39;12.22;94967.72;5034884;28;20075;-67
2021/10/30 10:34:42;;;;;;;8.57;6.82;;;;;;;32.77;13.00;94964.56;5035867;28;20467;-51
2021/10/30 10:37:12;;;;;;;16.55;6.45;;;;;;;32.90;12.77;94962.06;5037087;28;20329;-51
2021/10/30 10:39:44;;;;;;;8.20;6.70;;;;;;;32.17;13.45;94954.75;5024023;28;20050;-62
2021/10/30 10:42:15;;;;;;;15.93;6.30;;;;;;;32.04;13.02;94951.88;5035414;28;20490;-44
2021/10/30 10:44:42;;;;;;;9.70;6.95;;;;;;;32.47;13.04;94956.63;5036410;28;20057;-70
2021/10/30 10:47:35;;;;;;;7.75;5.95;;;;;;;32.49;13.17;94949.59;5036298;28;20049;-55
2021/10/30 10:50:26;;;;;;;10.52;5.80;;;;;;;32.34;12.91;94953.75;5036684;28;20384;-53
2021/10/30 10:55:58;;;;;;;7.55;5.95;;;;;;;32.79;12.71;94945.25;5036457;28;20394;-72
2021/10/30 10:58:25;;;;;;;6.30;5.70;;;;;;;32.77;12.88;94937.50;5032781;28;20456;-72
2021/10/30 11:01:11;;;;;;;6.60;5.50;;;;;;;32.46;12.82;94934.19;5036585;28;20448;-71
2021/10/30 11:03:44;;;;;;;5.78;5.25;;;;;;;32.17;12.80;94930.44;5036618;28;20057;-73
2021/10/30 11:06:11;;;;;;;6.00;5.40;;;;;;;32.52;12.89;94920.94;5036418;28;20049;-71
2021/10/30 11:08:38;;;;;;;7.38;5.88;;;;;;;32.92;12.54;94935.34;5036344;28;20045;-72
2021/10/30 11:11:22;;;;;;;5.72;5.22;;;;;;;33.05;12.40;94917.28;5034803;28;20049;-71
2021/10/30 11:13:57;;;;;;;5.28;4.78;;;;;;;31.83;13.18;94919.75;5016841;28;20052;-55
2021/10/30 11:16:28;;;;;;;5.07;4.68;;;;;;;31.72;13.16;94917.22;5031590;28;20456;-52
2021/10/30 11:19:08;;;;;;;;;;;;;;;32.45;12.76;94911.03;5037038;28;20068;-70
2021/10/30 11:21:43;;;;;;;14.63;5.78;;;;;;;31.89;13.24;94918.88;5035440;28;19921;-63
2021/10/30 11:24:17;;;;;;;6.07;5.32;;;;;;;32.30;12.78;94909.78;5036506;28;20053;-61
2021/10/30 11:26:45;;;;;;;6.13;5.35;;;;;;;32.66;12.00;94903.72;5034863;28;20049;-57
2021/10/30 11:29:13;;;;;;;8.13;5.40;;;;;;;32.44;12.85;94920.31;5050822;28;20474;-50
2021/10/30 11:31:41;;;;;;;9.23;5.65;;;;;;;32.76;12.51;94905.44;5036014;28;20053;-56
2021/10/30 11:34:10;;;;;;;7.53;5.32;;;;;;;32.84;12.65;94898.75;5035557;28;20171;-62